createdAt,value
2019-05-22T00:00:25.715Z,29.42
2019-05-22T00:02:55.925Z,30.48
2019-05-22T00:05:34.239Z,30.97
2019-05-22T00:08:05.369Z,30.23
2019-05-22T00:10:35.096Z,30.52
2019-05-22T00:13:06.979Z,30.80
2019-05-22T00:15:38.742Z,30.82
2019-05-22T00:18:09.894Z,30.80
2019-05-22T00:20:41.688Z,30.37
2019-05-22T00:23:12.978Z,29.40
2019-05-22T00:25:44.847Z,29.63
2019-05-22T00:28:15.575Z,29.87
2019-05-22T00:30:47.963Z,30.27
2019-05-22T00:33:18.318Z,29.80
2019-05-22T00:35:47.959Z,29.42
2019-05-22T00:38:18.734Z,29.60
2019-05-22T00:40:52.195Z,28.25
2019-05-22T00:43:30.223Z,28.32
2019-05-22T00:46:05.382Z,27.50
2019-05-22T00:48:36.021Z,28.45
2019-05-22T00:51:10.445Z,27.35
2019-05-22T00:53:59.718Z,27.48
2019-05-22T00:56:31.680Z,28.15
2019-05-22T00:59:03.011Z,27.93
2019-05-22T01:01:38.905Z,28.62
2019-05-22T01:04:10.184Z,27.13
2019-05-22T01:06:39.893Z,28.70
2019-05-22T01:09:11.187Z,27.07
2019-05-22T01:11:45.272Z,28.32
2019-05-22T01:14:17.944Z,28.85
2019-05-22T01:16:49.222Z,30.08
2019-05-22T01:19:19.512Z,30.17
2019-05-22T01:21:50.746Z,30.55
2019-05-22T01:24:20.371Z,31.15
2019-05-22T01:26:51.645Z,29.77
2019-05-22T01:29:21.774Z,29.67
2019-05-22T01:31:53.422Z,29.80
2019-05-22T01:34:24.880Z,30.17
2019-05-22T01:36:59.447Z,30.43
2019-05-22T01:39:33.689Z,29.50
2019-05-22T01:42:05.058Z,29.25
2019-05-22T01:44:36.368Z,28.85
2019-05-22T01:47:10.052Z,28.55
2019-05-22T01:49:44.580Z,27.32
2019-05-22T01:52:15.772Z,28.38
2019-05-22T01:54:46.730Z,29.07
2019-05-22T01:57:17.930Z,27.93
2019-05-22T01:59:48.038Z,28.63
2019-05-22T02:02:19.136Z,29.32
2019-05-22T02:04:48.712Z,29.53
2019-05-22T02:07:20.890Z,29.42
2019-05-22T02:09:52.413Z,29.15
2019-05-22T02:12:29.015Z,29.72
2019-05-22T02:14:58.991Z,30.23
2019-05-22T02:17:31.817Z,29.57
2019-05-22T02:20:02.375Z,27.62
2019-05-22T02:22:32.296Z,29.82
2019-05-22T02:25:02.873Z,29.63
2019-05-22T02:27:34.449Z,28.12
2019-05-22T02:30:05.663Z,28.52
2019-05-22T02:32:37.929Z,27.98
2019-05-22T02:35:09.314Z,26.97
2019-05-22T02:37:41.149Z,28.77
2019-05-22T02:40:26.164Z,26.57
2019-05-22T02:42:56.494Z,26.93
2019-05-22T02:45:26.687Z,26.62
2019-05-22T02:47:57.291Z,26.10
2019-05-22T02:50:29.735Z,25.43
2019-05-22T02:53:01.810Z,26.25
2019-05-22T02:55:31.595Z,26.68
2019-05-22T02:58:03.469Z,26.95
2019-05-22T03:00:53.536Z,27.00
2019-05-22T03:03:23.362Z,26.93
2019-05-22T03:05:54.944Z,28.00
2019-05-22T03:08:44.336Z,29.45
2019-05-22T03:11:15.143Z,30.15
2019-05-22T03:14:01.007Z,30.25
2019-05-22T03:16:39.524Z,29.63
2019-05-22T03:19:09.549Z,28.67
2019-05-22T03:21:39.463Z,28.98
2019-05-22T03:24:09.122Z,28.67
2019-05-22T03:26:47.043Z,30.50
2019-05-22T03:29:18.799Z,32.13
2019-05-22T03:31:48.641Z,31.95
2019-05-22T03:34:18.454Z,29.45
2019-05-22T03:36:48.272Z,32.23
2019-05-22T03:39:18.285Z,32.38
2019-05-22T03:41:48.489Z,33.10
2019-05-22T03:44:19.788Z,34.75
2019-05-22T03:46:49.895Z,34.30
2019-05-22T03:49:29.742Z,33.23
2019-05-22T03:51:55.872Z,34.95
2019-05-22T03:54:25.547Z,36.33
2019-05-22T03:56:55.629Z,35.17
2019-05-22T03:59:25.732Z,35.30
2019-05-22T04:01:58.196Z,34.75
2019-05-22T04:04:36.636Z,34.03
2019-05-22T04:07:08.192Z,34.10
2019-05-22T04:09:40.605Z,32.50
2019-05-22T04:12:10.825Z,34.38
2019-05-22T04:14:40.805Z,34.30
2019-05-22T04:17:13.071Z,34.95
2019-05-22T04:19:50.544Z,34.03
2019-05-22T04:22:17.068Z,35.60
2019-05-22T04:24:46.928Z,33.58
2019-05-22T04:27:17.871Z,34.73
2019-05-22T04:29:47.645Z,33.78
2019-05-22T04:32:18.961Z,33.98
2019-05-22T04:34:48.692Z,33.35
2019-05-22T04:37:20.000Z,34.80
2019-05-22T04:39:51.838Z,34.98
2019-05-22T04:42:23.667Z,34.70
2019-05-22T04:45:12.799Z,32.58
2019-05-22T04:48:01.476Z,34.63
2019-05-22T04:50:31.205Z,34.38
2019-05-22T04:53:01.361Z,36.40
2019-05-22T04:55:33.396Z,36.90
2019-05-22T05:00:37.031Z,36.48
2019-05-22T05:03:08.567Z,37.42
2019-05-22T05:05:45.991Z,38.60
2019-05-22T05:08:16.101Z,36.20
2019-05-22T05:10:48.367Z,37.40
2019-05-22T05:13:18.513Z,37.33
2019-05-22T05:15:48.133Z,38.38
2019-05-22T05:18:18.148Z,36.00
2019-05-22T05:20:47.969Z,37.13
2019-05-22T05:23:17.687Z,36.40
2019-05-22T05:25:47.381Z,35.15
2019-05-22T05:28:17.391Z,35.78
2019-05-22T05:30:47.273Z,36.00
2019-05-22T05:33:17.423Z,33.38
2019-05-22T05:35:47.917Z,32.85
2019-05-22T05:38:17.851Z,31.35
2019-05-22T05:40:47.631Z,33.67
2019-05-22T05:43:17.439Z,32.55
2019-05-22T05:45:49.329Z,31.23
2019-05-22T05:48:23.950Z,32.08
2019-05-22T05:51:08.737Z,32.45
2019-05-22T05:53:59.892Z,32.63
2019-05-22T05:56:30.484Z,31.70
2019-05-22T05:59:02.739Z,31.23
2019-05-22T06:01:34.010Z,31.12
2019-05-22T06:04:04.648Z,29.40
2019-05-22T06:06:40.381Z,30.10
2019-05-22T06:09:13.692Z,30.45
2019-05-22T06:11:52.993Z,30.05
2019-05-22T06:14:30.166Z,29.35
2019-05-22T06:17:40.449Z,30.32
2019-05-22T06:20:13.645Z,31.75
2019-05-22T06:22:45.607Z,31.23
2019-05-22T06:25:17.052Z,31.20
2019-05-22T06:27:51.487Z,30.62
2019-05-22T06:30:25.662Z,29.15
2019-05-22T06:33:13.726Z,27.48
2019-05-22T06:35:46.374Z,28.35
2019-05-22T06:38:28.197Z,27.75
2019-05-22T06:40:58.732Z,28.12
2019-05-22T06:43:31.558Z,28.67
2019-05-22T06:46:03.012Z,28.30
2019-05-22T06:48:32.774Z,28.50
2019-05-22T06:51:02.485Z,28.07
2019-05-22T06:53:32.113Z,28.60
2019-05-22T06:56:02.634Z,29.05
2019-05-22T06:58:32.376Z,29.60
2019-05-22T07:01:02.662Z,30.27
2019-05-22T07:03:32.931Z,30.62
2019-05-22T07:06:03.984Z,32.05
2019-05-22T07:08:33.777Z,31.15
2019-05-22T07:11:04.207Z,30.65
2019-05-22T07:13:34.291Z,31.52
2019-05-22T07:16:05.014Z,32.75
2019-05-22T07:18:34.643Z,31.45
2019-05-22T07:21:04.381Z,31.50
2019-05-22T07:23:36.676Z,31.40
2019-05-22T07:26:06.333Z,30.17
2019-05-22T07:28:36.695Z,31.50
2019-05-22T07:31:08.187Z,31.50
2019-05-22T07:33:38.547Z,30.82
2019-05-22T07:36:12.218Z,28.80
2019-05-22T07:38:40.405Z,29.70
2019-05-22T07:41:10.410Z,28.12
2019-05-22T07:43:41.350Z,29.48
2019-05-22T07:46:11.728Z,32.43
2019-05-22T07:48:41.991Z,30.43
2019-05-22T07:51:12.746Z,29.92
2019-05-22T07:53:42.593Z,28.75
2019-05-22T07:56:14.169Z,28.95
2019-05-22T07:58:44.647Z,29.27
2019-05-22T08:01:16.077Z,26.97
2019-05-22T08:03:47.703Z,28.45
2019-05-22T08:06:18.215Z,27.77
2019-05-22T08:08:48.348Z,27.62
2019-05-22T08:11:19.945Z,27.45
2019-05-22T08:13:50.440Z,29.07
2019-05-22T08:16:21.824Z,28.35
2019-05-22T08:18:52.088Z,28.15
2019-05-22T08:21:23.602Z,26.68
2019-05-22T08:23:54.890Z,25.57
2019-05-22T08:26:24.855Z,26.50
2019-05-22T08:28:55.569Z,24.65
2019-05-22T08:31:25.779Z,24.63
2019-05-22T08:33:56.461Z,24.72
2019-05-22T08:36:26.433Z,24.07
2019-05-22T08:38:56.379Z,22.90
2019-05-22T08:41:29.025Z,22.98
2019-05-22T08:44:15.426Z,23.52
2019-05-22T08:46:31.929Z,24.10
2019-05-22T08:49:02.223Z,22.80
2019-05-22T08:51:31.847Z,22.58
2019-05-22T08:54:05.658Z,23.95
2019-05-22T08:56:38.508Z,21.17
2019-05-22T08:59:18.858Z,21.73
2019-05-22T09:01:40.363Z,22.98
2019-05-22T09:04:10.234Z,21.40
2019-05-22T09:06:40.225Z,20.85
2019-05-22T09:09:09.847Z,18.62
2019-05-22T09:11:39.556Z,18.60
2019-05-22T09:14:09.418Z,17.50
2019-05-22T09:16:39.933Z,6.45
2019-05-22T09:19:10.009Z,5.50
2019-05-22T09:21:40.677Z,12.07
2019-05-22T09:24:14.659Z,17.00
2019-05-22T09:26:45.108Z,15.30
2019-05-22T09:29:15.117Z,9.10
2019-05-22T09:31:45.094Z,5.30
2019-05-22T09:34:15.202Z,5.35
2019-05-22T09:36:45.034Z,5.03
2019-05-22T09:39:15.893Z,5.05
2019-05-22T09:41:45.507Z,5.10
2019-05-22T09:44:15.479Z,4.97
2019-05-22T09:46:45.466Z,5.58
2019-05-22T09:49:15.286Z,4.80
2019-05-22T09:51:45.158Z,4.70
2019-05-22T09:54:14.970Z,4.53
2019-05-22T09:56:44.571Z,5.25
2019-05-22T09:59:14.206Z,5.80
2019-05-22T10:01:43.744Z,5.70
2019-05-22T10:04:13.729Z,5.35
2019-05-22T10:06:43.554Z,5.53
2019-05-22T10:09:13.172Z,5.47
2019-05-22T10:11:42.792Z,6.47
2019-05-22T10:14:13.413Z,6.05
2019-05-22T10:16:43.671Z,5.42
2019-05-22T10:19:14.486Z,6.67
2019-05-22T10:21:44.184Z,6.30
2019-05-22T10:24:14.164Z,6.60
2019-05-22T10:26:43.767Z,5.80
2019-05-22T10:29:14.073Z,5.83
2019-05-22T10:31:43.625Z,6.35
2019-05-22T10:34:13.514Z,5.58
2019-05-22T10:36:43.380Z,5.37
2019-05-22T10:39:13.094Z,5.72
2019-05-22T10:41:42.823Z,5.70
2019-05-22T10:44:12.632Z,6.20
2019-05-22T10:46:42.418Z,5.87
2019-05-22T10:49:12.247Z,5.22
2019-05-22T10:51:41.795Z,5.75
2019-05-22T10:54:11.504Z,4.67
2019-05-22T10:56:41.071Z,4.58
2019-05-22T10:59:10.682Z,4.70
2019-05-22T11:01:40.389Z,4.70
2019-05-22T11:04:10.739Z,5.12
2019-05-22T11:06:41.301Z,5.28
2019-05-22T11:09:12.077Z,5.72
2019-05-22T11:11:42.852Z,5.85
2019-05-22T11:14:13.526Z,4.90
2019-05-22T11:16:43.157Z,6.12
2019-05-22T11:19:12.763Z,5.40
2019-05-22T11:21:42.784Z,5.62
2019-05-22T11:24:12.693Z,6.03
2019-05-22T11:26:43.996Z,6.05
2019-05-22T11:29:14.198Z,6.08
2019-05-22T11:31:44.500Z,6.47
2019-05-22T11:34:15.174Z,6.45
2019-05-22T11:36:44.978Z,6.03
2019-05-22T11:39:19.241Z,6.20
2019-05-22T11:41:48.909Z,5.80
2019-05-22T11:44:19.197Z,5.90
2019-05-22T11:46:49.627Z,6.20
2019-05-22T11:49:19.254Z,6.33
2019-05-22T11:51:50.290Z,7.53
2019-05-22T11:54:20.005Z,6.85
2019-05-22T11:56:51.231Z,6.40
2019-05-22T11:59:23.040Z,6.87
2019-05-22T12:01:53.309Z,6.42
2019-05-22T12:04:23.565Z,7.15
2019-05-22T12:06:54.113Z,6.67
2019-05-22T12:09:23.944Z,6.83
2019-05-22T12:11:54.299Z,7.30
2019-05-22T12:14:24.334Z,7.20
2019-05-22T12:16:54.926Z,8.43
2019-05-22T12:19:25.794Z,7.47
2019-05-22T12:21:55.996Z,7.58
2019-05-22T12:24:31.314Z,7.12
2019-05-22T12:26:57.230Z,8.25
2019-05-22T12:29:28.011Z,6.95
2019-05-22T12:31:59.246Z,8.58
2019-05-22T12:34:29.267Z,8.10
2019-05-22T12:36:59.173Z,7.28
2019-05-22T12:39:29.853Z,7.28
2019-05-22T12:42:00.735Z,7.35
2019-05-22T12:44:30.448Z,8.08
2019-05-22T12:47:00.146Z,7.55
2019-05-22T12:49:30.569Z,7.47
2019-05-22T12:52:01.315Z,6.97
2019-05-22T12:54:45.318Z,6.90
2019-05-22T12:57:02.910Z,6.87
2019-05-22T12:59:32.526Z,7.40
2019-05-22T13:02:03.221Z,6.70
2019-05-22T13:04:34.771Z,7.25
2019-05-22T13:07:05.885Z,7.00
2019-05-22T13:09:36.486Z,8.27
2019-05-22T13:12:08.507Z,7.53
2019-05-22T13:14:39.833Z,7.47
2019-05-22T13:17:12.787Z,7.50
2019-05-22T13:19:43.772Z,7.45
2019-05-22T13:22:16.906Z,7.97
2019-05-22T13:24:47.435Z,8.25
2019-05-22T13:27:20.028Z,8.05
2019-05-22T13:29:50.814Z,7.53
2019-05-22T13:32:22.266Z,7.78
2019-05-22T13:34:54.155Z,7.45
2019-05-22T13:39:53.054Z,8.25
2019-05-22T13:42:23.285Z,8.25
2019-05-22T13:44:53.583Z,8.00
2019-05-22T13:47:23.460Z,8.38
2019-05-22T13:49:53.745Z,7.58
2019-05-22T13:52:23.691Z,8.18
2019-05-22T13:54:53.780Z,8.28
2019-05-22T13:57:24.387Z,7.50
2019-05-22T13:59:54.173Z,7.62
2019-05-22T14:02:27.141Z,7.83
2019-05-22T14:04:55.502Z,7.25
2019-05-22T14:07:25.617Z,7.72
2019-05-22T14:09:56.031Z,8.05
2019-05-22T14:12:25.953Z,7.05
2019-05-22T14:14:55.666Z,7.15
2019-05-22T14:17:25.296Z,6.35
2019-05-22T14:19:55.174Z,6.95
2019-05-22T14:22:25.102Z,7.70
2019-05-22T14:24:54.896Z,7.10
2019-05-22T14:27:24.962Z,7.45
2019-05-22T14:29:54.600Z,7.35
2019-05-22T14:32:30.053Z,7.72
2019-05-22T14:34:55.508Z,7.58
2019-05-22T14:37:25.209Z,7.67
2019-05-22T14:39:54.924Z,8.30
2019-05-22T14:42:25.519Z,7.35
2019-05-22T14:44:55.390Z,9.35
2019-05-22T14:47:25.224Z,8.35
2019-05-22T14:49:55.145Z,6.97
2019-05-22T14:52:25.290Z,7.90
2019-05-22T14:54:54.996Z,8.20
2019-05-22T14:57:25.695Z,6.80
2019-05-22T14:59:55.390Z,6.67
2019-05-22T15:02:25.412Z,7.28
2019-05-22T15:04:55.710Z,6.85
2019-05-22T15:07:25.588Z,7.30
2019-05-22T15:09:55.230Z,8.23
2019-05-22T15:12:25.349Z,7.80
2019-05-22T15:14:55.136Z,8.20
2019-05-22T15:17:32.713Z,7.80
2019-05-22T15:19:57.352Z,7.45
2019-05-22T15:22:28.290Z,6.80
2019-05-22T15:24:58.270Z,6.30
2019-05-22T15:27:28.237Z,5.78
2019-05-22T15:29:58.138Z,6.95
2019-05-22T15:32:28.336Z,7.10
2019-05-22T15:34:59.114Z,6.72
2019-05-22T15:37:29.689Z,7.95
2019-05-22T15:39:59.383Z,7.90
2019-05-22T15:42:41.150Z,6.60
2019-05-22T15:45:17.701Z,7.20
2019-05-22T15:47:55.523Z,7.10
2019-05-22T15:52:59.645Z,6.45
2019-05-22T15:55:31.399Z,6.60
2019-05-22T15:58:01.966Z,6.90
2019-05-22T16:00:34.843Z,6.35
2019-05-22T16:03:21.217Z,6.72
2019-05-22T16:05:54.211Z,7.92
2019-05-22T16:08:24.422Z,7.22
2019-05-22T16:10:59.656Z,6.85
2019-05-22T16:13:30.142Z,6.33
2019-05-22T16:16:02.331Z,6.30
2019-05-22T16:18:36.573Z,6.83
2019-05-22T16:21:07.982Z,7.10
2019-05-22T16:23:38.496Z,7.25
2019-05-22T16:26:10.084Z,7.30
2019-05-22T16:31:12.645Z,7.47
2019-05-22T16:33:44.076Z,7.22
2019-05-22T16:36:14.332Z,7.53
2019-05-22T16:38:46.492Z,6.33
2019-05-22T16:41:17.293Z,7.87
2019-05-22T16:43:50.034Z,7.72
2019-05-22T16:46:20.622Z,7.53
2019-05-22T16:48:50.597Z,7.43
2019-05-22T16:51:21.871Z,6.60
2019-05-22T16:53:54.700Z,7.47
2019-05-22T16:56:25.563Z,7.25
2019-05-22T16:58:56.238Z,7.08
2019-05-22T17:01:27.333Z,7.35
2019-05-22T17:04:00.091Z,6.95
2019-05-22T17:06:30.811Z,7.03
2019-05-22T17:09:01.645Z,7.08
2019-05-22T17:14:04.712Z,6.92
2019-05-22T17:16:39.127Z,6.90
2019-05-22T17:19:25.546Z,5.70
2019-05-22T17:21:41.423Z,6.20
2019-05-22T17:24:13.890Z,6.35
2019-05-22T17:26:44.958Z,6.50
2019-05-22T17:29:15.756Z,7.08
2019-05-22T17:31:45.743Z,6.17
2019-05-22T17:34:34.776Z,6.55
2019-05-22T17:37:09.608Z,6.83
2019-05-22T17:39:41.885Z,6.53
2019-05-22T17:42:17.507Z,7.03
2019-05-22T17:44:49.787Z,6.78
2019-05-22T17:47:21.988Z,6.42
2019-05-22T17:49:53.413Z,6.72
2019-05-22T17:52:26.226Z,6.25
2019-05-22T17:54:56.004Z,6.10
2019-05-22T17:57:26.271Z,6.62
2019-05-22T17:59:57.756Z,6.62
2019-05-22T18:02:29.083Z,6.78
2019-05-22T18:04:58.904Z,6.28
2019-05-22T18:07:28.827Z,6.45
2019-05-22T18:09:58.459Z,6.10
2019-05-22T18:12:28.623Z,6.90
2019-05-22T18:14:58.706Z,6.92
2019-05-22T18:17:28.676Z,6.33
2019-05-22T18:19:58.540Z,4.87
2019-05-22T18:22:28.316Z,4.17
2019-05-22T18:24:58.011Z,4.03
2019-05-22T18:27:27.734Z,4.05
2019-05-22T18:29:57.533Z,4.15
2019-05-22T18:32:27.061Z,4.30
2019-05-22T18:34:56.692Z,3.92
2019-05-22T18:37:26.392Z,4.25
2019-05-22T18:39:55.995Z,3.83
2019-05-22T18:42:25.893Z,3.87
2019-05-22T18:44:56.349Z,3.92
2019-05-22T18:47:25.990Z,3.85
2019-05-22T18:49:55.602Z,3.50
2019-05-22T18:52:40.003Z,4.00
2019-05-22T18:54:56.769Z,4.10
2019-05-22T18:57:26.377Z,3.70
2019-05-22T19:00:02.348Z,4.00
2019-05-22T19:02:27.819Z,4.17
2019-05-22T19:04:57.454Z,4.05
2019-05-22T19:07:27.346Z,3.98
2019-05-22T19:09:56.954Z,4.45
2019-05-22T19:12:26.684Z,4.10
2019-05-22T19:14:56.325Z,4.50
2019-05-22T19:17:26.185Z,4.45
2019-05-22T19:19:56.579Z,4.47
2019-05-22T19:22:26.691Z,5.03
2019-05-22T19:24:56.407Z,4.40
2019-05-22T19:27:25.974Z,3.47
2019-05-22T19:29:55.623Z,3.77
2019-05-22T19:32:25.497Z,3.62
2019-05-22T19:34:55.456Z,3.45
2019-05-22T19:37:25.346Z,3.92
2019-05-22T19:39:55.045Z,4.45
2019-05-22T19:42:24.693Z,3.55
2019-05-22T19:44:54.552Z,3.77
2019-05-22T19:47:25.155Z,4.70
2019-05-22T19:49:54.847Z,3.70
2019-05-22T19:52:38.994Z,4.20
2019-05-22T19:54:57.504Z,4.10
2019-05-22T19:57:27.966Z,3.92
2019-05-22T19:59:59.014Z,4.37
2019-05-22T20:02:28.701Z,5.67
2019-05-22T20:04:58.328Z,7.45
2019-05-22T20:07:28.804Z,5.55
2019-05-22T20:10:00.219Z,5.12
2019-05-22T20:12:30.201Z,7.47
2019-05-22T20:15:04.218Z,4.80
2019-05-22T20:17:34.665Z,4.72
2019-05-22T20:20:10.201Z,4.47
2019-05-22T20:22:41.106Z,4.47
2019-05-22T20:25:12.184Z,5.03
2019-05-22T20:27:42.463Z,5.57
2019-05-22T20:30:15.394Z,5.28
2019-05-22T20:32:45.271Z,5.20
2019-05-22T20:35:17.750Z,5.42
2019-05-22T20:37:51.525Z,5.60
2019-05-22T20:40:22.234Z,6.25
2019-05-22T20:42:52.559Z,7.37
2019-05-22T20:45:24.504Z,8.28
2019-05-22T20:48:06.630Z,8.93
2019-05-22T20:50:37.418Z,8.60
2019-05-22T20:53:10.033Z,9.33
2019-05-22T20:55:42.707Z,10.43
2019-05-22T20:58:17.116Z,9.78
2019-05-22T21:00:49.967Z,8.80
2019-05-22T21:03:21.920Z,10.18
2019-05-22T21:05:54.392Z,10.82
2019-05-22T21:08:25.512Z,10.03
2019-05-22T21:10:56.472Z,10.38
2019-05-22T21:13:26.517Z,10.98
2019-05-22T21:15:57.446Z,11.83
2019-05-22T21:18:31.693Z,10.90
2019-05-22T21:21:02.676Z,11.60
2019-05-22T21:23:32.374Z,12.05
2019-05-22T21:26:03.494Z,12.95
2019-05-22T21:28:33.418Z,12.35
2019-05-22T21:31:04.225Z,12.82
2019-05-22T21:33:36.152Z,12.37
2019-05-22T21:36:06.677Z,12.00
2019-05-22T21:38:36.332Z,11.40
2019-05-22T21:41:10.089Z,11.88
2019-05-22T21:43:43.408Z,10.70
2019-05-22T21:46:13.864Z,10.45
2019-05-22T21:48:45.113Z,10.55
2019-05-22T21:51:17.117Z,10.05
2019-05-22T21:56:19.165Z,9.23
2019-05-22T21:58:53.101Z,8.78
2019-05-22T22:01:27.425Z,8.60
2019-05-22T22:04:00.469Z,8.35
2019-05-22T22:06:33.188Z,8.05
2019-05-22T22:09:01.554Z,8.63
2019-05-22T22:11:33.426Z,9.35
2019-05-22T22:16:35.015Z,11.30
2019-05-22T22:19:04.762Z,11.12
2019-05-22T22:21:34.550Z,11.75
2019-05-22T22:24:05.995Z,11.75
2019-05-22T22:26:37.566Z,12.20
2019-05-22T22:29:08.013Z,13.43
2019-05-22T22:31:38.381Z,14.45
2019-05-22T22:34:13.885Z,14.83
2019-05-22T22:36:43.711Z,15.90
2019-05-22T22:39:15.195Z,16.00
2019-05-22T22:41:46.290Z,16.10
2019-05-22T22:44:16.636Z,16.13
2019-05-22T22:46:56.292Z,16.12
2019-05-22T22:49:28.052Z,15.90
2019-05-22T22:51:57.780Z,16.17
2019-05-22T22:54:28.187Z,16.17
2019-05-22T22:57:01.125Z,15.50
2019-05-22T22:59:32.255Z,14.80
2019-05-22T23:02:03.785Z,15.00
2019-05-22T23:04:34.464Z,14.20
2019-05-22T23:07:05.962Z,14.90
2019-05-22T23:09:37.111Z,15.48
2019-05-22T23:12:07.921Z,14.90
2019-05-22T23:14:40.759Z,14.95
2019-05-22T23:17:11.366Z,15.13
2019-05-22T23:19:41.716Z,14.68
2019-05-22T23:22:20.695Z,15.00
2019-05-22T23:24:53.347Z,15.78
2019-05-22T23:27:24.016Z,15.78
2019-05-22T23:29:54.291Z,15.32
2019-05-22T23:32:24.430Z,13.40
2019-05-22T23:34:55.502Z,14.93
2019-05-22T23:39:56.189Z,14.35
2019-05-22T23:42:30.210Z,13.58
2019-05-22T23:45:02.806Z,12.93
2019-05-22T23:47:33.166Z,12.50
2019-05-22T23:50:03.866Z,12.85
2019-05-22T23:52:33.790Z,11.22
2019-05-22T23:55:03.883Z,11.20
2019-05-22T23:57:33.769Z,11.75
